Time;durP1;ratioP1;P1;durP2;ratioP2;P2;SDS_P1;SDS_P2;PMS_P1;PMS_P2;Temp;Humidity;BMP_temperature;BMP_pressure;BME280_temperature;BME280_humidity;BME280_pressure;Samples;Min_cycle;Max_cycle;Signal;HPM_P1;HPM_P2
2024/03/22 00:01:52;;;;;;;;;;;;;;;;;;5020080;28;19955;-63
2024/03/22 00:04:18;;;;;;;;;;;;;;;;;;5012244;28;19940;-64
2024/03/22 00:06:45;;;;;;;;;;;;;;;;;;5013476;28;20375;-64
2024/03/22 00:09:14;;;;;;;;;;;;;;;;;;5012216;28;19920;-64
2024/03/22 00:11:40;;;;;;;;;;;;;;;;;;5012322;28;20011;-64
2024/03/22 00:14:07;;;;;;;;;;;;;;;;;;5013794;28;19937;-64
2024/03/22 00:16:42;;;;;;;;;;;;;;;;;;5004084;28;19921;-64
2024/03/22 00:19:08;;;;;;;;;;;;;;;;;;5031844;28;19913;-64
2024/03/22 00:21:34;;;;;;;;;;;;;;;;;;5017889;28;19948;-64
2024/03/22 00:24:01;;;;;;;;;;;;;;;;;;5011965;28;19914;-64
2024/03/22 00:26:27;;;;;;;;;;;;;;;;;;5012117;28;19914;-64
2024/03/22 00:28:53;;;;;;;;;;;;;;;;;;4995550;28;20397;-64
2024/03/22 00:31:19;;;;;;;;;;;;;;;;;;5004659;28;19924;-64
2024/03/22 00:33:45;;;;;;;;;;;;;;;;;;5032631;28;19939;-64
2024/03/22 00:36:18;;;;;;;;;;;;;;;;;;5003143;28;20301;-64
2024/03/22 00:38:44;;;;;;;;;;;;;;;;;;5022721;28;19941;-64
2024/03/22 00:41:10;;;;;;;;;;;;;;;;;;5006902;28;19909;-64
2024/03/22 00:43:37;;;;;;;;;;;;;;;;;;4998337;28;19913;-64
2024/03/22 00:46:07;;;;;;;;;;;;;;;;;;5015446;28;20408;-64
2024/03/22 00:48:36;;;;;;;;;;;;;;;;;;5030073;28;19960;-64
2024/03/22 00:51:03;;;;;;;;;;;;;;;;;;5023059;28;19935;-64
2024/03/22 00:53:29;;;;;;;;;;;;;;;;;;5027476;28;19925;-64
2024/03/22 00:55:56;;;;;;;;;;;;;;;;;;5015211;28;19936;-64
2024/03/22 00:58:22;;;;;;;;;;;;;;;;;;5016616;28;19920;-64
2024/03/22 01:00:48;;;;;;;;;;;;;;;;;;5020947;28;20036;-64
2024/03/22 01:03:17;;;;;;;;;;;;;;;;;;5028693;28;19937;-64
2024/03/22 01:05:44;;;;;;;;;;;;;;;;;;4997814;28;20317;-64
2024/03/22 01:08:10;;;;;;;;;;;;;;;;;;5015409;28;19920;-64
2024/03/22 01:10:42;;;;;;;;;;;;;;;;;;5030602;28;19913;-64
2024/03/22 01:13:08;;;;;;;;;;;;;;;;;;5027633;28;19917;-63
2024/03/22 01:15:35;;;;;;;;;;;;;;;;;;5029381;28;19913;-64
2024/03/22 01:18:01;;;;;;;;;;;;;;;;;;5015165;28;19921;-63
2024/03/22 01:20:27;;;;;;;;;;;;;;;;;;5027214;28;20000;-64
2024/03/22 01:22:54;;;;;;;;;;;;;;;;;;5015061;28;20425;-64
2024/03/22 01:25:20;;;;;;;;;;;;;;;;;;5007829;28;19909;-64
2024/03/22 01:27:46;;;;;;;;;;;;;;;;;;5034829;28;20079;-64
2024/03/22 01:30:12;;;;;;;;;;;;;;;;;;5033605;28;19924;-64
2024/03/22 01:32:38;;;;;;;;;;;;;;;;;;5023094;28;19913;-64
2024/03/22 01:35:04;;;;;;;;;;;;;;;;;;5016938;28;19909;-64
2024/03/22 01:37:37;;;;;;;;;;;;;;;;;;5023124;28;19921;-64
2024/03/22 01:40:04;;;;;;;;;;;;;;;;;;5014797;28;19961;-64
2024/03/22 01:42:30;;;;;;;;;;;;;;;;;;5014807;28;19917;-64
2024/03/22 01:44:56;;;;;;;;;;;;;;;;;;4996385;28;20440;-64
2024/03/22 01:47:23;;;;;;;;;;;;;;;;;;4997192;28;20255;-64
2024/03/22 01:49:52;;;;;;;;;;;;;;;;;;5026717;28;20382;-64
2024/03/22 01:52:18;;;;;;;;;;;;;;;;;;5016685;28;20354;-64
2024/03/22 01:54:44;;;;;;;;;;;;;;;;;;5034077;28;19921;-64
2024/03/22 01:57:10;;;;;;;;;;;;;;;;;;5033968;28;20358;-63
2024/03/22 01:59:37;;;;;;;;;;;;;;;;;;5034148;28;19913;-64
2024/03/22 02:02:03;;;;;;;;;;;;;;;;;;5034156;28;19999;-64
2024/03/22 02:04:29;;;;;;;;;;;;;;;;;;5032762;28;20000;-64
2024/03/22 02:06:58;;;;;;;;;;;;;;;;;;5016301;28;19952;-64
2024/03/22 02:09:25;;;;;;;;;;;;;;;;;;5033999;28;19920;-63
2024/03/22 02:11:51;;;;;;;;;;;;;;;;;;5033889;28;20442;-63
2024/03/22 02:14:17;;;;;;;;;;;;;;;;;;5033791;28;20366;-64
2024/03/22 02:16:45;;;;;;;;;;;;;;;;;;5033762;28;19935;-64
2024/03/22 02:19:11;;;;;;;;;;;;;;;;;;5033955;28;19913;-64
2024/03/22 02:21:37;;;;;;;;;;;;;;;;;;5033800;28;19944;-64
2024/03/22 02:24:03;;;;;;;;;;;;;;;;;;5033808;28;20058;-64
2024/03/22 02:26:29;;;;;;;;;;;;;;;;;;5002419;28;19914;-64
2024/03/22 02:28:56;;;;;;;;;;;;;;;;;;4996426;28;19913;-64
2024/03/22 02:31:22;;;;;;;;;;;;;;;;;;5013827;28;19916;-64
2024/03/22 02:33:51;;;;;;;;;;;;;;;;;;5013572;28;19917;-64
2024/03/22 02:36:17;;;;;;;;;;;;;;;;;;5013354;28;19914;-64
2024/03/22 02:38:43;;;;;;;;;;;;;;;;;;5013770;28;19964;-64
2024/03/22 02:41:16;;;;;;;;;;;;;;;;;;5013656;28;20008;-64
2024/03/22 02:43:42;;;;;;;;;;;;;;;;;;4996083;28;19913;-64
2024/03/22 02:46:08;;;;;;;;;;;;;;;;;;5013415;28;19910;-64
2024/03/22 02:48:35;;;;;;;;;;;;;;;;;;4995964;28;19920;-64
2024/03/22 02:51:01;;;;;;;;;;;;;;;;;;5013468;28;20374;-64
2024/03/22 02:53:27;;;;;;;;;;;;;;;;;;5013488;28;19996;-64
2024/03/22 02:55:53;;;;;;;;;;;;;;;;;;5012524;28;19971;-64
2024/03/22 02:58:19;;;;;;;;;;;;;;;;;;5013037;28;19917;-64
2024/03/22 03:00:45;;;;;;;;;;;;;;;;;;5013258;28;20276;-64
2024/03/22 03:03:18;;;;;;;;;;;;;;;;;;5015448;28;19914;-64
2024/03/22 03:05:50;;;;;;;;;;;;;;;;;;5011734;28;19913;-64
2024/03/22 03:08:17;;;;;;;;;;;;;;;;;;5021518;28;19913;-64
2024/03/22 03:10:46;;;;;;;;;;;;;;;;;;5026382;28;19917;-64
2024/03/22 03:13:12;;;;;;;;;;;;;;;;;;5017027;28;20004;-64
2024/03/22 03:15:39;;;;;;;;;;;;;;;;;;5020768;28;20378;-64
2024/03/22 03:18:08;;;;;;;;;;;;;;;;;;5013006;28;19920;-63
2024/03/22 03:20:37;;;;;;;;;;;;;;;;;;5031872;28;20012;-64
2024/03/22 03:23:03;;;;;;;;;;;;;;;;;;5031244;28;19913;-64
2024/03/22 03:25:29;;;;;;;;;;;;;;;;;;5032535;28;19959;-64
2024/03/22 03:27:56;;;;;;;;;;;;;;;;;;5031303;28;19913;-63
2024/03/22 03:30:22;;;;;;;;;;;;;;;;;;5014992;28;19909;-63
2024/03/22 03:32:48;;;;;;;;;;;;;;;;;;5011775;28;19961;-64
2024/03/22 03:35:14;;;;;;;;;;;;;;;;;;5012626;28;19909;-63
2024/03/22 03:37:40;;;;;;;;;;;;;;;;;;5012632;28;19971;-64
2024/03/22 03:40:06;;;;;;;;;;;;;;;;;;4995106;28;20009;-64
2024/03/22 03:42:33;;;;;;;;;;;;;;;;;;5012547;28;19975;-64
2024/03/22 03:44:59;;;;;;;;;;;;;;;;;;4994859;28;19910;-64
2024/03/22 03:47:25;;;;;;;;;;;;;;;;;;5012395;28;19963;-64
2024/03/22 03:49:52;;;;;;;;;;;;;;;;;;5012515;28;19909;-64
2024/03/22 03:52:21;;;;;;;;;;;;;;;;;;5013593;28;19913;-64
2024/03/22 03:54:47;;;;;;;;;;;;;;;;;;5023195;28;20341;-64
2024/03/22 03:57:13;;;;;;;;;;;;;;;;;;5015123;28;19921;-64
2024/03/22 03:59:39;;;;;;;;;;;;;;;;;;5014128;28;19996;-63
2024/03/22 04:02:06;;;;;;;;;;;;;;;;;;5028268;28;20393;-64
2024/03/22 04:04:35;;;;;;;;;;;;;;;;;;5014140;28;19939;-64
2024/03/22 04:07:01;;;;;;;;;;;;;;;;;;5012139;28;20408;-64
2024/03/22 04:09:31;;;;;;;;;;;;;;;;;;5001916;28;19909;-64
2024/03/22 04:11:58;;;;;;;;;;;;;;;;;;5019119;28;20263;-64
2024/03/22 04:14:24;;;;;;;;;;;;;;;;;;5015051;28;19966;-64
2024/03/22 04:16:51;;;;;;;;;;;;;;;;;;5024298;28;19917;-63
2024/03/22 04:19:17;;;;;;;;;;;;;;;;;;4994727;28;20354;-63
2024/03/22 04:21:43;;;;;;;;;;;;;;;;;;5004849;28;19913;-63
2024/03/22 04:24:09;;;;;;;;;;;;;;;;;;5014139;28;20366;-64
2024/03/22 04:26:35;;;;;;;;;;;;;;;;;;5010255;28;20008;-64
2024/03/22 04:29:02;;;;;;;;;;;;;;;;;;5012496;28;19913;-64
2024/03/22 04:31:31;;;;;;;;;;;;;;;;;;5002874;28;19980;-64
2024/03/22 04:33:57;;;;;;;;;;;;;;;;;;5012005;28;19909;-64
2024/03/22 04:36:23;;;;;;;;;;;;;;;;;;4999214;28;19945;-64
2024/03/22 04:38:50;;;;;;;;;;;;;;;;;;5023684;28;19924;-63
2024/03/22 04:41:16;;;;;;;;;;;;;;;;;;5012000;28;20004;-63
2024/03/22 04:43:51;;;;;;;;;;;;;;;;;;5012024;28;19909;-64
2024/03/22 04:46:17;;;;;;;;;;;;;;;;;;5021926;28;19913;-63
2024/03/22 04:48:43;;;;;;;;;;;;;;;;;;5012018;28;19956;-63
2024/03/22 04:51:10;;;;;;;;;;;;;;;;;;5026412;28;19917;-60
2024/03/22 04:53:36;;;;;;;;;;;;;;;;;;5012413;28;20384;-50
2024/03/22 04:56:02;;;;;;;;;;;;;;;;;;5011533;28;19917;-54
2024/03/22 04:58:29;;;;;;;;;;;;;;;;;;4995608;28;19914;-66
2024/03/22 05:00:55;;;;;;;;;;;;;;;;;;5011863;28;19913;-66
2024/03/22 05:03:21;;;;;;;;;;;;;;;;;;5011815;28;20385;-66
2024/03/22 05:05:47;;;;;;;;;;;;;;;;;;5011694;28;19920;-66
2024/03/22 05:08:13;;;;;;;;;;;;;;;;;;5011838;28;19909;-66
2024/03/22 05:10:40;;;;;;;;;;;;;;;;;;5011678;28;19921;-66
2024/03/22 05:13:06;;;;;;;;;;;;;;;;;;5012223;28;19936;-66
2024/03/22 05:15:35;;;;;;;;;;;;;;;;;;5011662;28;19914;-66
2024/03/22 05:18:01;;;;;;;;;;;;;;;;;;5011775;28;19965;-66
2024/03/22 05:20:27;;;;;;;;;;;;;;;;;;5013652;28;19914;-66
2024/03/22 05:22:54;;;;;;;;;;;;;;;;;;4997665;28;19913;-66
2024/03/22 05:25:20;;;;;;;;;;;;;;;;;;5015036;28;19920;-66
2024/03/22 05:27:46;;;;;;;;;;;;;;;;;;5015363;28;19920;-66
2024/03/22 05:30:13;;;;;;;;;;;;;;;;;;5015022;28;19913;-66
2024/03/22 05:32:40;;;;;;;;;;;;;;;;;;5014974;28;19913;-66
2024/03/22 05:35:06;;;;;;;;;;;;;;;;;;4997177;28;19914;-66
2024/03/22 05:37:33;;;;;;;;;;;;;;;;;;5014813;28;19921;-67
2024/03/22 05:40:00;;;;;;;;;;;;;;;;;;5014955;28;19913;-66
2024/03/22 05:42:29;;;;;;;;;;;;;;;;;;4997029;28;19921;-66
2024/03/22 05:44:55;;;;;;;;;;;;;;;;;;5014726;28;19932;-67
2024/03/22 05:47:21;;;;;;;;;;;;;;;;;;5014575;28;19937;-66
2024/03/22 05:49:52;;;;;;;;;;;;;;;;;;5014749;28;19913;-66
2024/03/22 05:52:18;;;;;;;;;;;;;;;;;;4997173;28;20289;-66
2024/03/22 05:54:48;;;;;;;;;;;;;;;;;;5014566;28;20004;-67
2024/03/22 05:57:16;;;;;;;;;;;;;;;;;;5014401;28;19968;-66
2024/03/22 05:59:42;;;;;;;;;;;;;;;;;;5014663;28;19967;-66
2024/03/22 06:02:08;;;;;;;;;;;;;;;;;;4997014;28;19913;-66
2024/03/22 06:04:36;;;;;;;;;;;;;;;;;;4996792;28;19913;-66
2024/03/22 06:07:04;;;;;;;;;;;;;;;;;;5014338;28;20354;-66
2024/03/22 06:09:46;;;;;;;;;;;;;;;;;;5014364;28;20465;-66
2024/03/22 06:12:12;;;;;;;;;;;;;;;;;;5014326;28;19921;-66
2024/03/22 06:14:38;;;;;;;;;;;;;;;;;;5014334;28;19910;-67
2024/03/22 06:17:04;;;;;;;;;;;;;;;;;;5014196;28;19917;-67
2024/03/22 06:19:30;;;;;;;;;;;;;;;;;;5014330;28;19909;-66
2024/03/22 06:21:57;;;;;;;;;;;;;;;;;;4996647;28;19914;-66
2024/03/22 06:24:23;;;;;;;;;;;;;;;;;;5014020;28;20366;-66
2024/03/22 06:26:49;;;;;;;;;;;;;;;;;;5014035;28;19914;-65
2024/03/22 06:29:18;;;;;;;;;;;;;;;;;;5014106;28;19917;-66
2024/03/22 06:31:44;;;;;;;;;;;;;;;;;;5013815;28;19921;-66
2024/03/22 06:34:10;;;;;;;;;;;;;;;;;;5013845;28;20424;-66
2024/03/22 06:36:37;;;;;;;;;;;;;;;;;;5013746;28;19953;-66
2024/03/22 06:39:06;;;;;;;;;;;;;;;;;;5013881;28;19910;-66
2024/03/22 06:41:32;;;;;;;;;;;;;;;;;;5013854;28;19917;-66
2024/03/22 06:43:59;;;;;;;;;;;;;;;;;;4996257;28;19956;-66
2024/03/22 06:46:25;;;;;;;;;;;;;;;;;;5013519;28;19968;-66
2024/03/22 06:48:51;;;;;;;;;;;;;;;;;;5013703;28;19917;-66
2024/03/22 06:51:17;;;;;;;;;;;;;;;;;;4996124;28;19920;-66
2024/03/22 06:53:45;;;;;;;;;;;;;;;;;;5013629;28;20386;-66
2024/03/22 06:56:14;;;;;;;;;;;;;;;;;;5013272;28;20294;-66
2024/03/22 06:58:40;;;;;;;;;;;;;;;;;;5013507;28;19913;-67
2024/03/22 07:01:06;;;;;;;;;;;;;;;;;;4996104;28;19914;-65
2024/03/22 07:03:33;;;;;;;;;;;;;;;;;;4995874;28;19913;-51
2024/03/22 07:06:00;;;;;;;;;;;;;;;;;;5013053;28;20015;-53
2024/03/22 07:08:29;;;;;;;;;;;;;;;;;;4995209;28;20286;-52
2024/03/22 07:10:59;;;;;;;;;;;;;;;;;;4995907;28;19918;-52
2024/03/22 07:13:25;;;;;;;;;;;;;;;;;;5001992;28;19913;-51
2024/03/22 07:15:51;;;;;;;;;;;;;;;;;;4995245;28;19914;-56
2024/03/22 07:18:24;;;;;;;;;;;;;;;;;;5002613;28;19949;-53
2024/03/22 07:20:50;;;;;;;;;;;;;;;;;;4977623;28;20016;-54
2024/03/22 07:23:16;;;;;;;;;;;;;;;;;;5002720;28;20027;-54
2024/03/22 07:25:45;;;;;;;;;;;;;;;;;;5008152;28;19918;-55
2024/03/22 07:28:15;;;;;;;;;;;;;;;;;;5003029;28;19957;-66
2024/03/22 07:30:41;;;;;;;;;;;;;;;;;;4993765;28;20334;-67
2024/03/22 07:33:07;;;;;;;;;;;;;;;;;;5003783;28;19914;-67
2024/03/22 07:35:33;;;;;;;;;;;;;;;;;;4992268;28;20013;-66
2024/03/22 07:37:59;;;;;;;;;;;;;;;;;;5000085;28;20402;-67
2024/03/22 07:40:25;;;;;;;;;;;;;;;;;;5011525;28;19914;-66
2024/03/22 07:42:52;;;;;;;;;;;;;;;;;;5003845;28;19909;-66
2024/03/22 07:45:18;;;;;;;;;;;;;;;;;;4993140;28;19914;-65
2024/03/22 07:47:48;;;;;;;;;;;;;;;;;;5003114;28;19917;-66
2024/03/22 07:50:15;;;;;;;;;;;;;;;;;;4993090;28;20037;-66
2024/03/22 07:52:41;;;;;;;;;;;;;;;;;;5004171;28;19917;-67
2024/03/22 07:55:11;;;;;;;;;;;;;;;;;;4991404;28;19914;-65
2024/03/22 07:57:37;;;;;;;;;;;;;;;;;;5004126;28;19922;-66
2024/03/22 08:00:03;;;;;;;;;;;;;;;;;;4992851;28;19914;-65
2024/03/22 08:02:37;;;;;;;;;;;;;;;;;;5004118;28;19920;-65
2024/03/22 08:05:06;;;;;;;;;;;;;;;;;;4993044;28;20367;-66
2024/03/22 08:07:32;;;;;;;;;;;;;;;;;;4995565;28;19914;-65
2024/03/22 08:10:00;;;;;;;;;;;;;;;;;;4992899;28;19980;-64
2024/03/22 08:12:26;;;;;;;;;;;;;;;;;;5003033;28;19941;-66
2024/03/22 08:14:52;;;;;;;;;;;;;;;;;;4993450;28;20473;-66
2024/03/22 08:17:18;;;;;;;;;;;;;;;;;;5001755;28;19913;-66
2024/03/22 08:19:45;;;;;;;;;;;;;;;;;;4994548;28;19914;-66
2024/03/22 08:22:11;;;;;;;;;;;;;;;;;;5000871;28;20298;-66
2024/03/22 08:24:37;;;;;;;;;;;;;;;;;;4995712;28;19914;-66
2024/03/22 08:27:06;;;;;;;;;;;;;;;;;;4999606;28;19931;-66
2024/03/22 08:29:36;;;;;;;;;;;;;;;;;;4994840;28;19941;-66
2024/03/22 08:32:04;;;;;;;;;;;;;;;;;;4999516;28;19916;-66
2024/03/22 08:34:30;;;;;;;;;;;;;;;;;;4996277;28;19918;-66
2024/03/22 08:36:56;;;;;;;;;;;;;;;;;;4996213;28;19964;-60
2024/03/22 08:39:24;;;;;;;;;;;;;;;;;;5007195;28;20385;-66
2024/03/22 08:41:53;;;;;;;;;;;;;;;;;;5006013;28;19964;-66
2024/03/22 08:44:19;;;;;;;;;;;;;;;;;;4997700;28;19964;-66
2024/03/22 08:46:46;;;;;;;;;;;;;;;;;;4997154;28;19910;-65
2024/03/22 08:49:14;;;;;;;;;;;;;;;;;;4998681;28;20007;-48
2024/03/22 08:51:41;;;;;;;;;;;;;;;;;;4996461;28;20004;-55
2024/03/22 08:54:10;;;;;;;;;;;;;;;;;;4981610;28;19914;-65
2024/03/22 08:56:36;;;;;;;;;;;;;;;;;;4981764;28;20379;-66
2024/03/22 08:59:02;;;;;;;;;;;;;;;;;;5003726;28;19913;-66
2024/03/22 09:01:28;;;;;;;;;;;;;;;;;;4998471;28;19910;-67
2024/03/22 09:03:54;;;;;;;;;;;;;;;;;;5034896;28;19913;-67
2024/03/22 09:06:21;;;;;;;;;;;;;;;;;;5035199;28;19913;-66
2024/03/22 09:08:47;;;;;;;;;;;;;;;;;;5035353;28;19917;-66
2024/03/22 09:11:13;;;;;;;;;;;;;;;;;;5035347;28;19913;-65
2024/03/22 09:13:39;;;;;;;;;;;;;;;;;;5035187;28;19917;-66
2024/03/22 09:16:06;;;;;;;;;;;;;;;;;;5035022;28;19945;-65
2024/03/22 09:18:35;;;;;;;;;;;;;;;;;;5035041;28;20370;-65
2024/03/22 09:21:02;;;;;;;;;;;;;;;;;;5035044;28;20020;-66
2024/03/22 09:23:34;;;;;;;;;;;;;;;;;;5034951;28;19935;-65
2024/03/22 09:26:00;;;;;;;;;;;;;;;;;;5034715;28;19920;-66
2024/03/22 09:28:27;;;;;;;;;;;;;;;;;;5035007;28;19991;-65
2024/03/22 09:30:56;;;;;;;;;;;;;;;;;;5035152;28;19959;-67
2024/03/22 09:33:22;;;;;;;;;;;;;;;;;;5034785;28;20343;-65
2024/03/22 09:35:48;;;;;;;;;;;;;;;;;;5034558;28;19913;-65
2024/03/22 09:38:15;;;;;;;;;;;;;;;;;;5017191;28;19954;-65
2024/03/22 09:40:41;;;;;;;;;;;;;;;;;;5032492;28;19928;-67
2024/03/22 09:43:07;;;;;;;;;;;;;;;;;;5034680;28;19986;-66
2024/03/22 09:45:33;;;;;;;;;;;;;;;;;;5034384;28;19912;-65
2024/03/22 09:48:02;;;;;;;;;;;;;;;;;;5034499;28;19913;-66
2024/03/22 09:50:29;;;;;;;;;;;;;;;;;;5016824;28;19913;-65
2024/03/22 09:52:55;;;;;;;;;;;;;;;;;;5016656;28;19932;-65
2024/03/22 09:55:22;;;;;;;;;;;;;;;;;;5034141;28;19913;-65
2024/03/22 09:57:53;;;;;;;;;;;;;;;;;;5016531;28;19925;-66
2024/03/22 10:00:21;;;;;;;;;;;;;;;;;;5034293;28;19970;-66
2024/03/22 10:02:47;;;;;;;;;;;;;;;;;;5016551;28;19909;-66
2024/03/22 10:05:14;;;;;;;;;;;;;;;;;;5033556;28;19948;-66
2024/03/22 10:07:41;;;;;;;;;;;;;;;;;;5034266;28;19913;-65
2024/03/22 10:10:07;;;;;;;;;;;;;;;;;;5034194;28;20152;-65
2024/03/22 10:12:34;;;;;;;;;;;;;;;;;;5033991;28;19909;-66
2024/03/22 10:15:00;;;;;;;;;;;;;;;;;;5033951;28;20281;-66
2024/03/22 10:17:26;;;;;;;;;;;;;;;;;;5033615;28;19960;-66
2024/03/22 10:19:53;;;;;;;;;;;;;;;;;;5016250;28;19913;-65
2024/03/22 10:22:19;;;;;;;;;;;;;;;;;;5016148;28;19916;-66
2024/03/22 10:24:45;;;;;;;;;;;;;;;;;;5033775;28;19936;-65
2024/03/22 10:27:11;;;;;;;;;;;;;;;;;;4999500;28;19949;-65
2024/03/22 10:29:38;;;;;;;;;;;;;;;;;;5033849;28;19913;-65
2024/03/22 10:32:04;;;;;;;;;;;;;;;;;;5033579;28;20370;-67
2024/03/22 10:34:30;;;;;;;;;;;;;;;;;;5033532;28;19924;-66
2024/03/22 10:36:57;;;;;;;;;;;;;;;;;;5033397;28;19920;-66
2024/03/22 10:39:23;;;;;;;;;;;;;;;;;;5033745;28;19913;-66
2024/03/22 10:41:49;;;;;;;;;;;;;;;;;;5033500;28;19909;-65
2024/03/22 10:44:16;;;;;;;;;;;;;;;;;;5033498;28;19952;-65
2024/03/22 10:46:42;;;;;;;;;;;;;;;;;;5033140;28;19909;-66
2024/03/22 10:49:08;;;;;;;;;;;;;;;;;;5015768;28;20369;-65
2024/03/22 10:51:34;;;;;;;;;;;;;;;;;;5033425;28;20472;-66
2024/03/22 10:54:00;;;;;;;;;;;;;;;;;;5032912;22;20362;-65
2024/03/22 10:56:26;;;;;;;;;;;;;;;;;;5013461;28;19917;-65
2024/03/22 10:58:53;;;;;;;;;;;;;;;;;;5013406;28;19920;-65
2024/03/22 11:01:19;;;;;;;;;;;;;;;;;;5013556;28;20311;-65
2024/03/22 11:03:45;;;;;;;;;;;;;;;;;;5013361;28;19913;-65
2024/03/22 11:06:11;;;;;;;;;;;;;;;;;;5013250;28;19941;-56
2024/03/22 11:08:40;;;;;;;;;;;;;;;;;;5013523;28;20031;-56
2024/03/22 11:11:06;;;;;;;;;;;;;;;;;;5013304;28;19971;-65
2024/03/22 11:13:32;;;;;;;;;;;;;;;;;;5013188;28;20031;-65
2024/03/22 11:15:59;;;;;;;;;;;;;;;;;;5012984;28;19916;-65
2024/03/22 11:18:25;;;;;;;;;;;;;;;;;;4994700;28;19917;-65
2024/03/22 11:20:51;;;;;;;;;;;;;;;;;;5012527;28;20083;-65
2024/03/22 11:23:20;;;;;;;;;;;;;;;;;;5009984;28;19913;-65
2024/03/22 11:25:49;;;;;;;;;;;;;;;;;;5005532;28;19917;-65
2024/03/22 11:28:19;;;;;;;;;;;;;;;;;;4980380;28;19920;-66
2024/03/22 11:30:48;;;;;;;;;;;;;;;;;;4983882;28;19914;-66
2024/03/22 11:33:15;;;;;;;;;;;;;;;;;;5002738;28;19913;-66
2024/03/22 11:35:41;;;;;;;;;;;;;;;;;;4977676;28;20286;-66
2024/03/22 11:38:07;;;;;;;;;;;;;;;;;;5004884;28;19968;-66
2024/03/22 11:40:37;;;;;;;;;;;;;;;;;;4986364;28;19917;-65
2024/03/22 11:43:04;;;;;;;;;;;;;;;;;;5025784;28;20390;-67
2024/03/22 11:45:33;;;;;;;;;;;;;;;;;;5015160;28;20324;-66
2024/03/22 11:48:00;;;;;;;;;;;;;;;;;;5015099;28;19944;-66
2024/03/22 11:50:30;;;;;;;;;;;;;;;;;;5004757;28;19924;-61
2024/03/22 11:52:56;;;;;;;;;;;;;;;;;;4982586;28;19959;-62
2024/03/22 11:55:22;;;;;;;;;;;;;;;;;;4995461;28;19918;-62
2024/03/22 11:57:49;;;;;;;;;;;;;;;;;;4999077;28;20440;-61
2024/03/22 12:00:15;;;;;;;;;;;;;;;;;;5003351;28;19920;-61
2024/03/22 12:02:41;;;;;;;;;;;;;;;;;;5000305;28;20313;-62
2024/03/22 12:05:07;;;;;;;;;;;;;;;;;;4991169;28;19918;-62
2024/03/22 12:07:33;;;;;;;;;;;;;;;;;;5005288;28;20374;-61
2024/03/22 12:10:00;;;;;;;;;;;;;;;;;;4987728;28;19918;-62
2024/03/22 12:12:26;;;;;;;;;;;;;;;;;;4992473;28;19968;-61
2024/03/22 12:14:52;;;;;;;;;;;;;;;;;;4994844;28;20374;-62
2024/03/22 12:17:18;;;;;;;;;;;;;;;;;;5000582;28;19921;-62
2024/03/22 12:19:45;;;;;;;;;;;;;;;;;;4973213;28;19918;-61
2024/03/22 12:22:11;;;;;;;;;;;;;;;;;;4984697;28;19924;-62
2024/03/22 12:24:37;;;;;;;;;;;;;;;;;;4991057;28;19918;-61
2024/03/22 12:27:03;;;;;;;;;;;;;;;;;;4998638;28;20317;-65
2024/03/22 12:29:33;;;;;;;;;;;;;;;;;;5001464;28;20004;-59
2024/03/22 12:32:01;;;;;;;;;;;;;;;;;;4999417;28;19925;-59
2024/03/22 12:34:29;;;;;;;;;;;;;;;;;;4995986;28;20382;-60
2024/03/22 12:36:55;;;;;;;;;;;;;;;;;;4995866;28;20386;-60
2024/03/22 12:39:21;;;;;;;;;;;;;;;;;;4996033;28;19981;-59
2024/03/22 12:41:47;;;;;;;;;;;;;;;;;;5003678;28;19917;-64
2024/03/22 12:44:13;;;;;;;;;;;;;;;;;;5007670;28;19929;-65
2024/03/22 12:46:42;;;;;;;;;;;;;;;;;;5019408;28;20047;-65
2024/03/22 12:49:08;;;;;;;;;;;;;;;;;;5013802;28;19924;-65
2024/03/22 12:51:35;;;;;;;;;;;;;;;;;;5005094;28;20405;-65
2024/03/22 12:54:01;;;;;;;;;;;;;;;;;;4997134;28;19924;-65
2024/03/22 12:56:28;;;;;;;;;;;;;;;;;;5014038;28;19917;-66
2024/03/22 12:58:54;;;;;;;;;;;;;;;;;;5006931;28;19925;-65
2024/03/22 13:01:20;;;;;;;;;;;;;;;;;;5004495;28;20377;-66
2024/03/22 13:03:46;;;;;;;;;;;;;;;;;;4989995;28;19924;-66
2024/03/22 13:06:12;;;;;;;;;;;;;;;;;;4976833;28;19917;-65
2024/03/22 13:08:39;;;;;;;;;;;;;;;;;;4995612;28;19917;-66
2024/03/22 13:11:08;;;;;;;;;;;;;;;;;;4976989;28;19918;-65
2024/03/22 13:13:35;;;;;;;;;;;;;;;;;;4994545;28;19922;-66
2024/03/22 13:16:02;;;;;;;;;;;;;;;;;;5003918;28;19967;-66
2024/03/22 13:18:28;;;;;;;;;;;;;;;;;;5014059;28;19913;-65
2024/03/22 13:20:54;;;;;;;;;;;;;;;;;;5003546;28;19918;-65
2024/03/22 13:23:21;;;;;;;;;;;;;;;;;;4976635;28;20431;-66
2024/03/22 13:25:47;;;;;;;;;;;;;;;;;;4976606;28;19913;-66
2024/03/22 13:28:13;;;;;;;;;;;;;;;;;;4994104;28;20048;-66
2024/03/22 13:30:39;;;;;;;;;;;;;;;;;;4994008;28;19920;-66
2024/03/22 13:33:07;;;;;;;;;;;;;;;;;;5004308;28;19910;-65
2024/03/22 13:35:34;;;;;;;;;;;;;;;;;;5013324;28;20695;-65
2024/03/22 13:38:00;;;;;;;;;;;;;;;;;;5013459;28;19925;-65
2024/03/22 13:40:26;;;;;;;;;;;;;;;;;;4995350;28;19920;-65
2024/03/22 13:43:02;;;;;;;;;;;;;;;;;;5004580;28;19920;-60
2024/03/22 13:45:28;;;;;;;;;;;;;;;;;;5011832;28;19914;-66
2024/03/22 13:47:54;;;;;;;;;;;;;;;;;;5013416;28;20456;-65
2024/03/22 13:50:22;;;;;;;;;;;;;;;;;;5030087;28;20012;-66
2024/03/22 13:52:51;;;;;;;;;;;;;;;;;;5015735;28;19914;-65
2024/03/22 13:55:21;;;;;;;;;;;;;;;;;;4996306;28;19965;-65
2024/03/22 13:57:47;;;;;;;;;;;;;;;;;;4995750;28;19960;-66
2024/03/22 14:00:14;;;;;;;;;;;;;;;;;;5020137;28;20337;-66
2024/03/22 14:02:45;;;;;;;;;;;;;;;;;;5004547;28;20297;-66
2024/03/22 14:05:11;;;;;;;;;;;;;;;;;;5004487;28;20466;-66
2024/03/22 14:07:40;;;;;;;;;;;;;;;;;;5002004;28;19917;-53
2024/03/22 14:10:15;;;;;;;;;;;;;;;;;;5019507;28;19914;-54
2024/03/22 14:12:42;;;;;;;;;;;;;;;;;;5017769;28;20301;-53
2024/03/22 14:15:08;;;;;;;;;;;;;;;;;;5023541;28;19933;-55
2024/03/22 14:17:34;;;;;;;;;;;;;;;;;;5013109;28;19941;-56
2024/03/22 14:20:01;;;;;;;;;;;;;;;;;;4996540;28;19992;-54
2024/03/22 14:22:27;;;;;;;;;;;;;;;;;;5014156;28;19913;-55
2024/03/22 14:24:53;;;;;;;;;;;;;;;;;;4996508;28;19910;-51
2024/03/22 14:27:20;;;;;;;;;;;;;;;;;;5013848;28;20412;-50
2024/03/22 14:29:46;;;;;;;;;;;;;;;;;;5014327;28;19937;-52
2024/03/22 14:32:12;;;;;;;;;;;;;;;;;;5014063;28;19914;-53
2024/03/22 14:34:38;;;;;;;;;;;;;;;;;;5012992;28;19918;-54
2024/03/22 14:37:04;;;;;;;;;;;;;;;;;;5004945;28;19921;-53
2024/03/22 14:39:31;;;;;;;;;;;;;;;;;;5019444;28;19921;-50
2024/03/22 14:41:58;;;;;;;;;;;;;;;;;;5018170;28;19913;-51
2024/03/22 14:44:28;;;;;;;;;;;;;;;;;;5012589;28;20114;-55
2024/03/22 14:46:54;;;;;;;;;;;;;;;;;;5016967;28;19964;-55
2024/03/22 14:49:20;;;;;;;;;;;;;;;;;;5004197;28;19956;-54
2024/03/22 14:51:47;;;;;;;;;;;;;;;;;;5017057;28;20016;-65
2024/03/22 14:54:13;;;;;;;;;;;;;;;;;;5010916;28;19918;-65
2024/03/22 14:56:42;;;;;;;;;;;;;;;;;;4993709;28;20302;-65
2024/03/22 14:59:08;;;;;;;;;;;;;;;;;;5006218;28;19976;-65
2024/03/22 15:01:38;;;;;;;;;;;;;;;;;;5004637;28;19917;-61
2024/03/22 15:04:06;;;;;;;;;;;;;;;;;;5007658;28;19914;-59
2024/03/22 15:06:32;;;;;;;;;;;;;;;;;;5027951;28;19963;-61
2024/03/22 15:09:09;;;;;;;;;;;;;;;;;;5005486;28;20016;-60
2024/03/22 15:11:36;;;;;;;;;;;;;;;;;;5011933;28;19921;-54
2024/03/22 15:14:02;;;;;;;;;;;;;;;;;;5013221;28;19909;-61
2024/03/22 15:16:28;;;;;;;;;;;;;;;;;;5014854;28;19925;-61
2024/03/22 15:18:54;;;;;;;;;;;;;;;;;;5005165;28;19914;-61
2024/03/22 15:21:21;;;;;;;;;;;;;;;;;;4995696;28;20298;-59
2024/03/22 15:23:47;;;;;;;;;;;;;;;;;;5011980;28;19917;-55
2024/03/22 15:26:13;;;;;;;;;;;;;;;;;;5012840;28;19920;-59
2024/03/22 15:28:40;;;;;;;;;;;;;;;;;;5013104;28;19999;-59
2024/03/22 15:31:06;;;;;;;;;;;;;;;;;;5013058;28;19921;-60
2024/03/22 15:33:36;;;;;;;;;;;;;;;;;;4995249;28;19993;-60
2024/03/22 15:36:02;;;;;;;;;;;;;;;;;;5012623;28;20008;-57
2024/03/22 15:38:28;;;;;;;;;;;;;;;;;;5013816;28;19931;-59
2024/03/22 15:40:55;;;;;;;;;;;;;;;;;;4997298;28;19918;-60
2024/03/22 15:43:21;;;;;;;;;;;;;;;;;;5015916;28;19909;-56
2024/03/22 15:45:50;;;;;;;;;;;;;;;;;;5031722;28;19913;-59
2024/03/22 15:48:20;;;;;;;;;;;;;;;;;;5031376;28;19948;-59
2024/03/22 15:50:53;;;;;;;;;;;;;;;;;;5032336;28;20464;-59
2024/03/22 15:53:20;;;;;;;;;;;;;;;;;;5031155;28;19941;-59
2024/03/22 15:55:46;;;;;;;;;;;;;;;;;;5032519;28;20290;-58
2024/03/22 15:58:12;;;;;;;;;;;;;;;;;;5014514;28;20389;-57
2024/03/22 16:00:38;;;;;;;;;;;;;;;;;;5032224;28;20025;-58
2024/03/22 16:03:08;;;;;;;;;;;;;;;;;;5032174;28;19913;-56
2024/03/22 16:05:35;;;;;;;;;;;;;;;;;;5031884;28;19913;-57
2024/03/22 16:08:02;;;;;;;;;;;;;;;;;;5031813;28;19913;-55
2024/03/22 16:10:28;;;;;;;;;;;;;;;;;;5032073;28;20003;-58
2024/03/22 16:12:54;;;;;;;;;;;;;;;;;;5031968;28;19923;-58
2024/03/22 16:15:21;;;;;;;;;;;;;;;;;;5031892;28;20366;-58
2024/03/22 16:17:48;;;;;;;;;;;;;;;;;;5014483;28;20459;-57
2024/03/22 16:20:14;;;;;;;;;;;;;;;;;;5032024;28;19959;-57
2024/03/22 16:22:41;;;;;;;;;;;;;;;;;;5004191;28;19914;-58
2024/03/22 16:25:07;;;;;;;;;;;;;;;;;;5021394;28;19947;-59
2024/03/22 16:27:33;;;;;;;;;;;;;;;;;;5022447;28;19924;-57
2024/03/22 16:30:08;;;;;;;;;;;;;;;;;;5021891;28;19949;-58
2024/03/22 16:32:38;;;;;;;;;;;;;;;;;;5017541;28;19913;-60
2024/03/22 16:35:05;;;;;;;;;;;;;;;;;;5030716;28;19936;-60
2024/03/22 16:37:31;;;;;;;;;;;;;;;;;;5031840;28;19917;-59
2024/03/22 16:39:58;;;;;;;;;;;;;;;;;;5031839;28;19949;-60
2024/03/22 16:42:24;;;;;;;;;;;;;;;;;;5031897;28;20004;-61
2024/03/22 16:44:50;;;;;;;;;;;;;;;;;;5031733;28;20403;-64